N23MZ -KVGT
Flight info
| Callsign | N23MZ |
|---|---|
| Flight time | N/A |
| Altitude | 10000 |
| Route | |
| Aircraft | SF50/L-VGDW/C |
Departure
| Time | N/A |
|---|---|
| Airport | - |
Arrival
| Time | 2026-05-08 23:02 |
|---|---|
| Airport | North Las Vegas Airport (KVGT) |
| Time | Latitude | Longitude | Altitude | Speed | Heading |
|---|---|---|---|---|---|
| 2026-05-08 22:44 | 36.06056 | -114.90565 | 3477 ft | 113 kts | 360° |
| 2026-05-08 22:44 | 36.06836 | -114.90561 | 3477 ft | 111 kts | 360° |
| 2026-05-08 22:44 | 36.07608 | -114.90559 | 3475 ft | 110 kts | 360° |
| 2026-05-08 22:45 | 36.08375 | -114.90553 | 3473 ft | 110 kts | 360° |
| 2026-05-08 22:45 | 36.09144 | -114.90562 | 3467 ft | 109 kts | 360° |
| 2026-05-08 22:45 | 36.09890 | -114.90560 | 3464 ft | 108 kts | 359° |
| 2026-05-08 22:45 | 36.10620 | -114.90558 | 3557 ft | 99 kts | 360° |
| 2026-05-08 22:46 | 36.11369 | -114.90545 | 3771 ft | 113 kts | 1° |
| 2026-05-08 22:46 | 36.12183 | -114.90522 | 4113 ft | 119 kts | 1° |
| 2026-05-08 22:46 | 36.13056 | -114.90501 | 4530 ft | 134 kts | 359° |
| 2026-05-08 22:46 | 36.13982 | -114.90462 | 4970 ft | 136 kts | 1° |
| 2026-05-08 22:47 | 36.14988 | -114.90409 | 5418 ft | 151 kts | 0° |
| 2026-05-08 22:47 | 36.16019 | -114.90585 | 5858 ft | 152 kts | 327° |
| 2026-05-08 22:47 | 36.16847 | -114.91391 | 6302 ft | 156 kts | 319° |
| 2026-05-08 22:47 | 36.17734 | -114.92228 | 6730 ft | 164 kts | 320° |
| 2026-05-08 22:48 | 36.18658 | -114.93110 | 7167 ft | 171 kts | 318° |
| 2026-05-08 22:48 | 36.19623 | -114.94022 | 7606 ft | 180 kts | 319° |
| 2026-05-08 22:48 | 36.20679 | -114.95017 | 8048 ft | 200 kts | 320° |
| 2026-05-08 22:48 | 36.21823 | -114.96104 | 8502 ft | 214 kts | 320° |
| 2026-05-08 22:49 | 36.23042 | -114.97256 | 8960 ft | 226 kts | 320° |
| 2026-05-08 22:49 | 36.25648 | -114.99721 | 9854 ft | 242 kts | 320° |
| 2026-05-08 22:49 | 36.27005 | -115.01007 | 9929 ft | 249 kts | 320° |
| 2026-05-08 22:50 | 36.28359 | -115.02298 | 9919 ft | 244 kts | 320° |
| 2026-05-08 22:50 | 36.29616 | -115.03700 | 9917 ft | 244 kts | 311° |
| 2026-05-08 22:50 | 36.30768 | -115.05294 | 9918 ft | 251 kts | 309° |
| 2026-05-08 22:50 | 36.31924 | -115.06939 | 9922 ft | 255 kts | 309° |
| 2026-05-08 22:51 | 36.33093 | -115.08608 | 9923 ft | 258 kts | 309° |
| 2026-05-08 22:51 | 36.34275 | -115.10291 | 9922 ft | 259 kts | 309° |
| 2026-05-08 22:51 | 36.35465 | -115.11986 | 9917 ft | 261 kts | 309° |
| 2026-05-08 22:51 | 36.36660 | -115.13685 | 9919 ft | 261 kts | 309° |
| 2026-05-08 22:52 | 36.37848 | -115.15373 | 9970 ft | 258 kts | 308° |
| 2026-05-08 22:52 | 36.39026 | -115.17056 | 9971 ft | 257 kts | 308° |
| 2026-05-08 22:52 | 36.40083 | -115.18838 | 9955 ft | 256 kts | 302° |
| 2026-05-08 22:52 | 36.41048 | -115.20705 | 9953 ft | 258 kts | 301° |
| 2026-05-08 22:53 | 36.42008 | -115.22589 | 9843 ft | 259 kts | 300° |
| 2026-05-08 22:53 | 36.42977 | -115.24473 | 9644 ft | 260 kts | 301° |
| 2026-05-08 22:53 | 36.43944 | -115.26327 | 9470 ft | 251 kts | 301° |
| 2026-05-08 22:53 | 36.44891 | -115.28118 | 9447 ft | 244 kts | 301° |
| 2026-05-08 22:54 | 36.45790 | -115.29842 | 9438 ft | 237 kts | 301° |
| 2026-05-08 22:54 | 36.46668 | -115.31526 | 9400 ft | 229 kts | 301° |
| 2026-05-08 22:54 | 36.47549 | -115.33217 | 9394 ft | 237 kts | 303° |
| 2026-05-08 22:54 | 36.48273 | -115.35011 | 9395 ft | 232 kts | 283° |
| 2026-05-08 22:55 | 36.48019 | -115.36964 | 9395 ft | 236 kts | 243° |
| 2026-05-08 22:55 | 36.46900 | -115.38446 | 9408 ft | 236 kts | 223° |
| 2026-05-08 22:55 | 36.45586 | -115.39720 | 9230 ft | 241 kts | 220° |
| 2026-05-08 22:55 | 36.44085 | -115.40576 | 8954 ft | 242 kts | 189° |
| 2026-05-08 22:56 | 36.42432 | -115.40277 | 8704 ft | 241 kts | 164° |
| 2026-05-08 22:56 | 36.40843 | -115.39572 | 8459 ft | 242 kts | 161° |
| 2026-05-08 22:56 | 36.39249 | -115.38830 | 8188 ft | 248 kts | 161° |
| 2026-05-08 22:56 | 36.37644 | -115.38071 | 7955 ft | 240 kts | 161° |
| 2026-05-08 22:57 | 36.36158 | -115.37315 | 7711 ft | 221 kts | 155° |
| 2026-05-08 22:57 | 36.34829 | -115.36494 | 7465 ft | 206 kts | 151° |
| 2026-05-08 22:57 | 36.33741 | -115.35471 | 7218 ft | 195 kts | 135° |
| 2026-05-08 22:57 | 36.32800 | -115.34296 | 6969 ft | 189 kts | 134° |
| 2026-05-08 22:58 | 36.31913 | -115.33181 | 6722 ft | 171 kts | 137° |
| 2026-05-08 22:58 | 36.31134 | -115.32169 | 6389 ft | 155 kts | 139° |
| 2026-05-08 22:58 | 36.30392 | -115.31247 | 6026 ft | 147 kts | 139° |
| 2026-05-08 22:58 | 36.29696 | -115.30338 | 5687 ft | 145 kts | 137° |
| 2026-05-08 22:59 | 36.28995 | -115.29452 | 5281 ft | 143 kts | 138° |
| 2026-05-08 22:59 | 36.28305 | -115.28585 | 4920 ft | 138 kts | 139° |
| 2026-05-08 22:59 | 36.27638 | -115.27752 | 4546 ft | 135 kts | 140° |
| 2026-05-08 22:59 | 36.26982 | -115.26936 | 4168 ft | 133 kts | 138° |
| 2026-05-08 23:00 | 36.26366 | -115.26110 | 3889 ft | 129 kts | 136° |
| 2026-05-08 23:00 | 36.25762 | -115.25289 | 3603 ft | 128 kts | 137° |
| 2026-05-08 23:00 | 36.25143 | -115.24520 | 3350 ft | 122 kts | 140° |
| 2026-05-08 23:00 | 36.24548 | -115.23797 | 3156 ft | 118 kts | 141° |
| 2026-05-08 23:01 | 36.23969 | -115.23064 | 3006 ft | 117 kts | 139° |
| 2026-05-08 23:01 | 36.23404 | -115.22368 | 2886 ft | 110 kts | 136° |
| 2026-05-08 23:01 | 36.22897 | -115.21694 | 2676 ft | 104 kts | 135° |
| 2026-05-08 23:01 | 36.22377 | -115.21083 | 2528 ft | 103 kts | 138° |
| 2026-05-08 23:02 | 36.21887 | -115.20440 | 2372 ft | 100 kts | 142° |
| 2026-05-08 23:02 | 36.21403 | -115.19840 | 2252 ft | 97 kts | 140° |
| 2026-05-08 23:02 | 36.20947 | -115.19275 | 2172 ft | 88 kts | 145° |
| 2026-05-08 23:02 | 36.20724 | -115.18982 | 2164 ft | 22 kts | 139° |
| 2026-05-08 23:03 | 36.20662 | -115.18885 | 2160 ft | 8 kts | 62° |
| 2026-05-08 23:03 | 36.20686 | -115.18848 | 2156 ft | 3 kts | 40° |
| 2026-05-08 23:03 | 36.20692 | -115.18843 | 2159 ft | 3 kts | 37° |
| 2026-05-08 23:03 | 36.20723 | -115.18807 | 2158 ft | 9 kts | 44° |
| 2026-05-08 23:04 | 36.20776 | -115.18745 | 2159 ft | 8 kts | 17° |
| 2026-05-08 23:04 | 36.20793 | -115.18768 | 2158 ft | 1 kts | 343° |
| 2026-05-08 23:04 | 36.20798 | -115.18766 | 2163 ft | 3 kts | 75° |
| 2026-05-08 23:04 | 36.20798 | -115.18764 | 2163 ft | 0 kts | 98° |